Time;durP1;ratioP1;P1;durP2;ratioP2;P2;SDS_P1;SDS_P2;PMS_P1;PMS_P2;Temp;Humidity;BMP_temperature;BMP_pressure;BME280_temperature;BME280_humidity;BME280_pressure;Samples;Min_cycle;Max_cycle;Signal;HPM_P1;HPM_P2
2024/01/05 00:04:01;;;;;;;2.88;0.90;;;;;;;;;;10572335;27;20117;-75
2024/01/05 00:09:06;;;;;;;1.35;0.95;;;;;;;;;;10584499;27;20126;-76
2024/01/05 00:14:09;;;;;;;1.50;0.60;;;;;;;;;;10587233;27;20126;-76
2024/01/05 00:19:11;;;;;;;5.05;1.08;;;;;;;;;;10574135;27;20318;-74
2024/01/05 00:24:15;;;;;;;2.47;0.55;;;;;;;;;;10585198;27;20095;-76
2024/01/05 00:29:18;;;;;;;0.55;0.32;;;;;;;;;;10591777;27;20058;-75
2024/01/05 00:34:21;;;;;;;1.20;0.57;;;;;;;;;;10589897;27;20484;-75
2024/01/05 00:39:25;;;;;;;3.03;0.50;;;;;;;;;;10587962;27;20164;-76
2024/01/05 00:44:31;;;;;;;0.50;0.50;;;;;;;;;;10581243;27;20050;-77
2024/01/05 00:49:34;;;;;;;1.92;0.80;;;;;;;;;;10573973;27;20250;-75
2024/01/05 00:54:39;;;;;;;0.90;0.45;;;;;;;;;;10595600;27;20062;-76
2024/01/05 00:59:41;;;;;;;0.45;0.40;;;;;;;;;;10582615;27;20098;-76
2024/01/05 01:04:44;;;;;;;3.92;1.00;;;;;;;;;;10596682;27;20043;-76
2024/01/05 01:09:48;;;;;;;0.88;0.63;;;;;;;;;;10592215;27;20044;-77
2024/01/05 01:14:50;;;;;;;2.15;0.80;;;;;;;;;;10588577;27;20082;-75
2024/01/05 01:19:53;;;;;;;0.30;0.30;;;;;;;;;;10598288;27;20043;-76
2024/01/05 01:24:57;;;;;;;0.88;0.40;;;;;;;;;;10591004;27;20634;-75
2024/01/05 01:30:00;;;;;;;0.63;0.30;;;;;;;;;;10591339;27;20515;-76
2024/01/05 01:35:02;;;;;;;0.82;0.47;;;;;;;;;;10597005;27;20436;-76
2024/01/05 01:40:08;;;;;;;0.57;0.57;;;;;;;;;;10591826;27;20126;-76
2024/01/05 01:45:11;;;;;;;5.38;0.93;;;;;;;;;;10589730;27;20043;-78
2024/01/05 01:50:14;;;;;;;0.80;0.28;;;;;;;;;;10585654;27;20043;-77
2024/01/05 01:55:18;;;;;;;1.88;0.70;;;;;;;;;;10578596;28;20039;-76
2024/01/05 02:00:21;;;;;;;0.75;0.20;;;;;;;;;;10597357;27;20060;-76
2024/01/05 02:05:24;;;;;;;0.28;0.28;;;;;;;;;;10587374;27;20498;-77
2024/01/05 02:10:28;;;;;;;2.17;0.40;;;;;;;;;;10597347;27;20062;-76
2024/01/05 02:15:30;;;;;;;2.67;0.60;;;;;;;;;;10594655;28;20031;-76
2024/01/05 02:20:33;;;;;;;1.60;0.52;;;;;;;;;;10591420;27;20075;-76
2024/01/05 02:25:37;;;;;;;0.82;0.60;;;;;;;;;;10592787;27;20039;-77
2024/01/05 02:30:40;;;;;;;1.40;0.38;;;;;;;;;;10596951;27;20031;-78
2024/01/05 02:35:43;;;;;;;1.85;0.65;;;;;;;;;;10600926;27;20369;-78
2024/01/05 02:40:47;;;;;;;1.38;0.50;;;;;;;;;;10602419;27;20075;-75
2024/01/05 02:45:49;;;;;;;0.82;0.25;;;;;;;;;;10593423;27;20485;-75
2024/01/05 02:50:52;;;;;;;0.82;0.45;;;;;;;;;;10593122;27;20063;-77
2024/01/05 02:55:56;;;;;;;0.20;0.10;;;;;;;;;;10576392;27;20047;-76
2024/01/05 03:00:59;;;;;;;0.98;0.22;;;;;;;;;;10588579;27;20091;-75
2024/01/05 03:06:01;;;;;;;0.20;0.10;;;;;;;;;;10586077;27;20055;-77
2024/01/05 03:11:05;;;;;;;0.90;0.32;;;;;;;;;;10592790;27;20386;-77
2024/01/05 03:16:08;;;;;;;2.47;0.40;;;;;;;;;;10599841;27;20110;-77
2024/01/05 03:21:11;;;;;;;0.20;0.20;;;;;;;;;;10601127;27;20100;-77
2024/01/05 03:26:15;;;;;;;0.10;0.10;;;;;;;;;;10595346;27;20043;-77
2024/01/05 03:31:19;;;;;;;1.02;0.30;;;;;;;;;;10593692;27;20061;-76
2024/01/05 03:36:22;;;;;;;0.70;0.50;;;;;;;;;;10596344;27;20131;-76
2024/01/05 03:41:26;;;;;;;1.20;0.32;;;;;;;;;;10597451;27;20043;-76
2024/01/05 03:46:29;;;;;;;0.75;0.50;;;;;;;;;;10594011;27;20504;-76
2024/01/05 03:51:31;;;;;;;1.23;0.47;;;;;;;;;;10596485;27;20045;-76
2024/01/05 03:56:40;;;;;;;1.48;0.40;;;;;;;;;;10595276;27;20149;-76
2024/01/05 04:01:43;;;;;;;0.60;0.40;;;;;;;;;;10586825;27;20504;-76
2024/01/05 04:06:46;;;;;;;0.93;0.33;;;;;;;;;;10595555;27;20047;-76
2024/01/05 04:11:52;;;;;;;0.10;0.10;;;;;;;;;;10596156;27;20191;-74
2024/01/05 04:16:54;;;;;;;1.30;0.50;;;;;;;;;;10594293;27;20039;-76
2024/01/05 04:21:58;;;;;;;0.73;0.40;;;;;;;;;;10594011;27;20042;-75
2024/01/05 04:27:01;;;;;;;0.90;0.60;;;;;;;;;;10589858;27;20031;-75
2024/01/05 04:32:05;;;;;;;0.10;0.08;;;;;;;;;;10585311;27;20546;-74
2024/01/05 04:37:08;;;;;;;0.32;0.30;;;;;;;;;;10588552;27;20125;-75
2024/01/05 04:42:12;;;;;;;1.63;0.57;;;;;;;;;;10584644;27;20099;-75
2024/01/05 04:47:15;;;;;;;0.28;0.28;;;;;;;;;;10587164;27;20411;-75
2024/01/05 04:52:18;;;;;;;2.28;0.80;;;;;;;;;;10590695;27;20053;-76
2024/01/05 04:57:22;;;;;;;0.77;0.60;;;;;;;;;;10584241;27;20040;-75
2024/01/05 05:02:24;;;;;;;;;;;;;;;;;;10592669;27;20043;-75
2024/01/05 05:07:27;;;;;;;3.22;0.68;;;;;;;;;;10584471;27;20307;-76
2024/01/05 05:12:31;;;;;;;1.95;0.90;;;;;;;;;;10588041;27;20577;-76
2024/01/05 05:17:33;;;;;;;3.47;0.90;;;;;;;;;;10586098;27;20070;-75
2024/01/05 05:22:36;;;;;;;0.40;0.30;;;;;;;;;;10587696;27;20036;-75
2024/01/05 05:27:40;;;;;;;2.90;0.70;;;;;;;;;;10570069;28;20067;-76
2024/01/05 05:32:43;;;;;;;4.40;0.90;;;;;;;;;;10582512;28;20376;-76
2024/01/05 05:37:45;;;;;;;2.47;1.00;;;;;;;;;;10581965;27;20089;-76
2024/01/05 05:42:49;;;;;;;1.17;0.65;;;;;;;;;;10585671;27;20046;-77
2024/01/05 05:47:52;;;;;;;3.40;0.73;;;;;;;;;;10589399;27;20039;-74
2024/01/05 05:52:55;;;;;;;0.98;0.80;;;;;;;;;;10583816;27;20058;-75
2024/01/05 05:57:59;;;;;;;2.88;1.00;;;;;;;;;;10585263;28;20070;-75
2024/01/05 06:03:05;;;;;;;0.28;0.22;;;;;;;;;;10592726;27;20039;-75
2024/01/05 06:08:11;;;;;;;2.33;0.63;;;;;;;;;;10589084;27;20043;-76
2024/01/05 06:13:15;;;;;;;0.52;0.25;;;;;;;;;;10594108;27;20055;-75
2024/01/05 06:18:17;;;;;;;1.27;0.60;;;;;;;;;;10594395;27;20051;-76
2024/01/05 06:23:20;;;;;;;0.30;0.30;;;;;;;;;;10597912;27;20134;-74
2024/01/05 06:28:24;;;;;;;1.23;0.55;;;;;;;;;;10592917;27;20315;-76
2024/01/05 06:33:29;;;;;;;2.03;0.88;;;;;;;;;;10586243;27;20464;-76
2024/01/05 06:38:32;;;;;;;4.70;0.43;;;;;;;;;;10596844;27;20572;-76
2024/01/05 06:43:36;;;;;;;1.25;0.22;;;;;;;;;;10594508;27;20055;-74
2024/01/05 06:48:38;;;;;;;0.90;0.80;;;;;;;;;;10587403;27;20492;-75
2024/01/05 06:53:42;;;;;;;2.17;0.63;;;;;;;;;;10592202;27;20039;-75
2024/01/05 06:58:45;;;;;;;0.15;0.15;;;;;;;;;;10587659;27;20120;-75
2024/01/05 07:03:48;;;;;;;3.53;1.20;;;;;;;;;;10587130;27;20031;-76
2024/01/05 07:08:51;;;;;;;0.32;0.20;;;;;;;;;;10593767;27;20053;-75
2024/01/05 07:13:55;;;;;;;0.90;0.50;;;;;;;;;;10598218;27;20469;-74
2024/01/05 07:18:59;;;;;;;6.00;1.05;;;;;;;;;;10587385;27;21931;-75
2024/01/05 07:24:02;;;;;;;1.80;0.90;;;;;;;;;;10591409;27;20035;-75
2024/01/05 07:29:06;;;;;;;1.33;0.80;;;;;;;;;;10581938;27;20333;-75
2024/01/05 07:34:09;;;;;;;0.85;0.60;;;;;;;;;;10582005;27;20377;-73
2024/01/05 07:39:12;;;;;;;2.20;1.10;;;;;;;;;;10587785;27;20126;-74
2024/01/05 07:44:16;;;;;;;1.58;0.38;;;;;;;;;;10591900;27;20032;-74
2024/01/05 07:49:19;;;;;;;1.70;0.82;;;;;;;;;;10594555;27;20063;-75
2024/01/05 07:54:22;;;;;;;1.98;0.80;;;;;;;;;;10588378;27;20036;-75
2024/01/05 07:59:26;;;;;;;2.20;0.57;;;;;;;;;;10595175;27;20416;-74
2024/01/05 08:04:29;;;;;;;0.98;0.35;;;;;;;;;;10573290;27;20545;-74
2024/01/05 08:09:32;;;;;;;2.08;0.57;;;;;;;;;;10593584;27;20050;-75
2024/01/05 08:14:36;;;;;;;2.42;0.88;;;;;;;;;;10583070;27;20492;-76
2024/01/05 08:19:39;;;;;;;1.83;0.52;;;;;;;;;;10585520;27;20138;-74
2024/01/05 08:24:42;;;;;;;1.10;0.50;;;;;;;;;;10578742;27;20041;-74
2024/01/05 08:29:46;;;;;;;2.15;1.10;;;;;;;;;;10587033;27;20051;-74
2024/01/05 08:34:49;;;;;;;2.67;0.88;;;;;;;;;;10586586;27;20456;-74
2024/01/05 08:39:51;;;;;;;5.53;0.65;;;;;;;;;;10587014;27;20047;-74
2024/01/05 08:44:55;;;;;;;2.80;0.90;;;;;;;;;;10560602;27;20111;-74
2024/01/05 08:49:58;;;;;;;0.10;0.10;;;;;;;;;;10567312;27;20147;-76
2024/01/05 08:55:00;;;;;;;1.98;0.90;;;;;;;;;;10581830;27;21027;-75
2024/01/05 09:00:09;;;;;;;2.00;0.63;;;;;;;;;;10580751;27;20167;-74
2024/01/05 09:05:12;;;;;;;1.65;0.82;;;;;;;;;;10578614;27;20035;-75
2024/01/05 09:10:15;;;;;;;4.38;1.10;;;;;;;;;;10569642;27;20158;-75
2024/01/05 09:15:20;;;;;;;1.48;1.10;;;;;;;;;;10577703;27;20043;-75
2024/01/05 09:20:24;;;;;;;1.15;0.88;;;;;;;;;;10564398;27;20100;-74
2024/01/05 09:25:27;;;;;;;3.75;1.33;;;;;;;;;;10580392;27;20248;-73
2024/01/05 09:30:31;;;;;;;2.45;0.85;;;;;;;;;;10584944;27;20805;-75
2024/01/05 09:35:34;;;;;;;;;;;;;;;;;;10587686;27;20042;-74
2024/01/05 09:40:37;;;;;;;3.38;1.05;;;;;;;;;;10590190;27;20014;-74
2024/01/05 09:45:41;;;;;;;2.60;1.10;;;;;;;;;;10587315;27;20050;-75
2024/01/05 09:50:48;;;;;;;0.63;0.32;;;;;;;;;;10594576;27;20039;-74
2024/01/05 09:55:51;;;;;;;1.95;0.90;;;;;;;;;;10585970;27;20049;-74
2024/01/05 10:00:57;;;;;;;1.48;1.15;;;;;;;;;;10587888;27;20074;-74
2024/01/05 10:06:00;;;;;;;5.07;1.08;;;;;;;;;;10593325;27;20039;-75
2024/01/05 10:11:06;;;;;;;2.88;0.98;;;;;;;;;;10594084;27;20044;-75
2024/01/05 10:16:11;;;;;;;1.38;1.02;;;;;;;;;;10586884;27;20031;-75
2024/01/05 10:21:14;;;;;;;1.45;1.20;;;;;;;;;;10592265;27;20130;-75
2024/01/05 10:26:18;;;;;;;4.15;1.13;;;;;;;;;;10585345;27;20141;-74
2024/01/05 10:31:22;;;;;;;0.93;0.65;;;;;;;;;;10590514;27;20043;-75
2024/01/05 10:36:26;;;;;;;0.93;0.45;;;;;;;;;;10587705;27;20038;-75
2024/01/05 10:41:29;;;;;;;1.02;0.80;;;;;;;;;;10591666;27;20109;-75
2024/01/05 10:46:34;;;;;;;6.22;0.95;;;;;;;;;;10592584;27;20153;-75
2024/01/05 10:51:37;;;;;;;0.32;0.32;;;;;;;;;;10598363;27;20090;-74
2024/01/05 10:56:42;;;;;;;3.90;1.05;;;;;;;;;;10587086;27;20062;-75
2024/01/05 11:01:46;;;;;;;1.80;0.75;;;;;;;;;;10586346;27;20047;-76
2024/01/05 11:06:50;;;;;;;2.33;1.00;;;;;;;;;;10584288;27;20039;-74
2024/01/05 11:11:59;;;;;;;1.70;0.87;;;;;;;;;;10591366;27;20051;-75
2024/01/05 11:17:18;;;;;;;5.47;1.70;;;;;;;;;;10589738;27;20036;-74
2024/01/05 11:22:24;;;;;;;2.40;1.02;;;;;;;;;;10562986;27;20543;-75
2024/01/05 11:27:27;;;;;;;15.10;2.85;;;;;;;;;;10579022;27;20237;-75
2024/01/05 11:32:35;;;;;;;5.60;2.53;;;;;;;;;;10576910;27;20138;-76
2024/01/05 11:37:38;;;;;;;6.95;2.40;;;;;;;;;;10584426;27;20042;-76
2024/01/05 11:42:44;;;;;;;3.95;1.15;;;;;;;;;;10582454;27;20075;-76
2024/01/05 11:47:48;;;;;;;2.72;1.10;;;;;;;;;;10578886;27;20408;-75
2024/01/05 11:52:51;;;;;;;;;;;;;;;;;;10571890;27;20112;-75
2024/01/05 11:57:56;;;;;;;5.57;2.17;;;;;;;;;;10592200;27;20006;-76
2024/01/05 12:03:01;;;;;;;3.35;1.35;;;;;;;;;;10590217;27;20566;-76
2024/01/05 12:08:05;;;;;;;2.47;0.88;;;;;;;;;;10580929;27;20050;-76
2024/01/05 12:13:07;;;;;;;3.00;1.30;;;;;;;;;;10569846;27;20039;-77
2024/01/05 12:18:11;;;;;;;3.33;0.98;;;;;;;;;;10584906;27;20502;-76
2024/01/05 12:23:30;;;;;;;5.95;1.33;;;;;;;;;;10582360;27;20164;-75
2024/01/05 12:28:34;;;;;;;4.68;1.52;;;;;;;;;;10586063;27;20050;-76
2024/01/05 12:33:39;;;;;;;3.70;1.50;;;;;;;;;;10585484;27;20047;-76
2024/01/05 12:38:42;;;;;;;3.45;1.20;;;;;;;;;;10580488;27;20149;-74
2024/01/05 12:43:46;;;;;;;2.72;1.30;;;;;;;;;;10586009;27;20101;-75
2024/01/05 12:48:50;;;;;;;;;;;;;;;;;;10577725;27;20139;-76
2024/01/05 12:54:02;;;;;;;3.47;1.33;;;;;;;;;;10594530;27;20388;-75
2024/01/05 12:59:07;;;;;;;1.80;1.10;;;;;;;;;;10583468;27;20039;-76
2024/01/05 13:04:10;;;;;;;2.72;1.05;;;;;;;;;;10584568;27;20117;-74
2024/01/05 13:09:17;;;;;;;3.03;1.63;;;;;;;;;;10585657;27;20043;-74
2024/01/05 13:14:19;;;;;;;;;;;;;;;;;;10589824;27;20035;-75
2024/01/05 13:19:22;;;;;;;1.67;0.82;;;;;;;;;;10580996;27;19927;-75
2024/01/05 13:24:29;;;;;;;3.35;2.05;;;;;;;;;;10559497;27;20049;-76
2024/01/05 13:29:32;;;;;;;1.77;0.95;;;;;;;;;;10587938;28;20055;-76
2024/01/05 13:34:34;;;;;;;1.27;1.00;;;;;;;;;;10591483;27;20043;-76
2024/01/05 13:39:41;;;;;;;2.75;1.13;;;;;;;;;;10582457;27;20685;-75
2024/01/05 13:44:44;;;;;;;4.03;1.08;;;;;;;;;;10581520;27;20146;-76
2024/01/05 13:49:47;;;;;;;3.40;1.25;;;;;;;;;;10578827;27;20051;-74
2024/01/05 13:54:51;;;;;;;2.53;1.50;;;;;;;;;;10584925;27;20027;-75
2024/01/05 13:59:57;;;;;;;2.42;0.70;;;;;;;;;;10583249;27;20130;-74
2024/01/05 14:05:00;;;;;;;4.07;1.42;;;;;;;;;;10593735;27;20071;-74
2024/01/05 14:10:06;;;;;;;1.90;1.08;;;;;;;;;;10589835;27;20061;-74
2024/01/05 14:15:10;;;;;;;3.33;1.25;;;;;;;;;;10591855;27;20550;-75
2024/01/05 14:20:13;;;;;;;4.25;1.45;;;;;;;;;;10576390;27;20052;-75
2024/01/05 14:25:20;;;;;;;3.45;1.40;;;;;;;;;;10589115;27;20074;-74
2024/01/05 14:30:24;;;;;;;3.97;1.38;;;;;;;;;;10584583;27;20156;-74
2024/01/05 14:35:28;;;;;;;3.78;1.02;;;;;;;;;;10597387;27;20044;-75
2024/01/05 14:40:32;;;;;;;4.70;1.85;;;;;;;;;;10589779;27;20040;-74
2024/01/05 14:45:35;;;;;;;3.83;1.60;;;;;;;;;;10588152;27;20051;-74
2024/01/05 14:50:38;;;;;;;4.90;1.30;;;;;;;;;;10594263;27;20045;-76
2024/01/05 14:55:44;;;;;;;5.97;1.50;;;;;;;;;;10569263;27;20042;-76
2024/01/05 15:00:48;;;;;;;4.90;2.05;;;;;;;;;;10587073;27;20120;-76
2024/01/05 15:05:51;;;;;;;8.38;1.85;;;;;;;;;;10587932;27;20035;-76
2024/01/05 15:10:55;;;;;;;5.57;1.73;;;;;;;;;;10593333;27;20112;-75
2024/01/05 15:16:02;;;;;;;3.05;1.50;;;;;;;;;;10584337;27;20053;-75
2024/01/05 15:21:07;;;;;;;3.53;1.50;;;;;;;;;;10591580;27;20039;-76
2024/01/05 15:26:17;;;;;;;3.03;1.45;;;;;;;;;;10589320;27;20369;-76
2024/01/05 15:31:21;;;;;;;3.55;1.30;;;;;;;;;;10585264;27;20053;-76
2024/01/05 15:36:24;;;;;;;2.92;1.38;;;;;;;;;;10590885;27;20348;-76
2024/01/05 15:41:28;;;;;;;3.15;1.02;;;;;;;;;;10584628;27;20039;-74
2024/01/05 15:46:33;;;;;;;2.50;1.15;;;;;;;;;;10592676;27;20100;-75
2024/01/05 15:51:36;;;;;;;4.80;1.10;;;;;;;;;;10589426;27;20201;-75
2024/01/05 15:56:41;;;;;;;2.95;1.10;;;;;;;;;;10591973;27;20126;-75
2024/01/05 16:01:49;;;;;;;3.53;1.60;;;;;;;;;;10583576;27;20054;-75
2024/01/05 16:06:54;;;;;;;4.45;1.50;;;;;;;;;;10591537;27;20029;-75
2024/01/05 16:11:58;;;;;;;3.08;1.40;;;;;;;;;;10584085;27;20381;-75
2024/01/05 16:17:01;;;;;;;1.08;0.55;;;;;;;;;;10588789;27;20035;-75
2024/01/05 16:22:04;;;;;;;4.53;1.60;;;;;;;;;;10588165;27;20047;-75
2024/01/05 16:27:08;;;;;;;3.28;1.80;;;;;;;;;;10568348;27;20073;-75
2024/01/05 16:32:11;;;;;;;;;;;;;;;;;;10583382;27;20126;-75
2024/01/05 16:37:14;;;;;;;5.78;2.15;;;;;;;;;;10584133;27;19969;-75
2024/01/05 16:42:18;;;;;;;2.23;1.00;;;;;;;;;;10561944;27;20117;-75
2024/01/05 16:47:22;;;;;;;1.80;1.02;;;;;;;;;;10586210;27;20044;-75
2024/01/05 16:52:25;;;;;;;4.25;1.90;;;;;;;;;;10584616;27;20044;-76
2024/01/05 16:57:29;;;;;;;3.65;1.27;;;;;;;;;;10589639;27;20121;-75
2024/01/05 17:02:34;;;;;;;7.35;2.63;;;;;;;;;;10579939;27;20039;-75
2024/01/05 17:07:37;;;;;;;5.28;2.40;;;;;;;;;;10584106;27;20135;-74
2024/01/05 17:12:41;;;;;;;7.38;2.63;;;;;;;;;;10581281;27;20031;-74
2024/01/05 17:17:45;;;;;;;16.20;4.95;;;;;;;;;;10585245;27;20403;-76
2024/01/05 17:22:50;;;;;;;3.35;1.33;;;;;;;;;;10587033;27;20131;-74
2024/01/05 17:27:54;;;;;;;;;;;;;;;;;;10586238;27;20080;-75
2024/01/05 17:32:58;;;;;;;9.20;3.08;;;;;;;;;;10587443;28;19931;-75
2024/01/05 17:38:01;;;;;;;0.65;0.55;;;;;;;;;;10582691;27;20043;-76
2024/01/05 17:43:07;;;;;;;13.25;3.97;;;;;;;;;;10585721;27;20152;-75
2024/01/05 17:48:14;;;;;;;2.53;1.88;;;;;;;;;;10584065;27;20043;-75
2024/01/05 17:53:18;;;;;;;37.75;9.25;;;;;;;;;;10572770;27;20059;-75
2024/01/05 17:58:21;;;;;;;3.87;1.83;;;;;;;;;;10597104;27;20078;-75
2024/01/05 18:03:28;;;;;;;9.70;3.40;;;;;;;;;;10590444;27;20124;-74
2024/01/05 18:08:30;;;;;;;7.88;2.95;;;;;;;;;;10585190;27;20027;-74
2024/01/05 18:13:33;;;;;;;10.35;3.83;;;;;;;;;;10592044;27;20046;-75
2024/01/05 18:18:39;;;;;;;5.25;2.08;;;;;;;;;;10588021;27;20047;-75
2024/01/05 18:23:44;;;;;;;4.50;2.05;;;;;;;;;;10599288;27;20039;-75
2024/01/05 18:28:46;;;;;;;6.88;2.30;;;;;;;;;;10592061;27;20391;-76
2024/01/05 18:33:50;;;;;;;11.13;3.83;;;;;;;;;;10591794;27;20043;-76
2024/01/05 18:38:53;;;;;;;7.47;2.72;;;;;;;;;;10589312;27;20089;-75
2024/01/05 18:43:56;;;;;;;8.48;3.13;;;;;;;;;;10584320;27;20914;-76
2024/01/05 18:49:01;;;;;;;6.45;3.08;;;;;;;;;;10592208;27;20158;-75
2024/01/05 18:54:05;;;;;;;21.50;6.63;;;;;;;;;;10587275;27;20096;-75
2024/01/05 18:59:10;;;;;;;16.33;6.28;;;;;;;;;;10572111;27;20146;-74
2024/01/05 19:04:14;;;;;;;14.83;4.70;;;;;;;;;;10587218;27;20062;-75
2024/01/05 19:09:18;;;;;;;9.07;3.08;;;;;;;;;;10585147;27;20068;-75
2024/01/05 19:14:23;;;;;;;6.93;3.42;;;;;;;;;;10590480;27;20530;-76
2024/01/05 19:19:31;;;;;;;25.98;8.05;;;;;;;;;;10588248;27;20054;-75
2024/01/05 19:24:34;;;;;;;7.53;3.03;;;;;;;;;;10593845;27;20050;-75
2024/01/05 19:29:37;;;;;;;6.95;2.97;;;;;;;;;;10589651;27;20452;-75
2024/01/05 19:34:44;;;;;;;7.38;2.80;;;;;;;;;;10579885;27;20047;-76
2024/01/05 19:39:47;;;;;;;5.68;3.17;;;;;;;;;;10592061;27;20436;-76
2024/01/05 19:44:50;;;;;;;6.32;2.90;;;;;;;;;;10589330;27;20175;-75
2024/01/05 19:49:54;;;;;;;10.35;3.58;;;;;;;;;;10588966;27;20035;-75
2024/01/05 19:54:59;;;;;;;8.95;3.83;;;;;;;;;;10596259;27;20365;-76
2024/01/05 20:00:02;;;;;;;;;;;;;;;;;;10588348;27;20036;-74
2024/01/05 20:05:09;;;;;;;9.30;3.90;;;;;;;;;;10591057;27;19950;-76
2024/01/05 20:10:12;;;;;;;14.13;5.47;;;;;;;;;;10586386;27;20110;-75
2024/01/05 20:15:14;;;;;;;9.90;4.15;;;;;;;;;;10587926;27;20046;-75
2024/01/05 20:20:19;;;;;;;25.75;11.65;;;;;;;;;;10601496;27;20046;-75
2024/01/05 20:25:24;;;;;;;11.50;4.50;;;;;;;;;;10599050;27;20070;-75
2024/01/05 20:30:28;;;;;;;10.82;4.25;;;;;;;;;;10596738;27;20481;-74
2024/01/05 20:35:32;;;;;;;15.98;6.75;;;;;;;;;;10596095;27;20039;-76
2024/01/05 20:40:35;;;;;;;10.70;4.00;;;;;;;;;;10590433;27;20054;-76
2024/01/05 20:45:37;;;;;;;12.07;3.92;;;;;;;;;;10600972;27;20042;-76
2024/01/05 20:50:41;;;;;;;11.68;4.53;;;;;;;;;;10599595;27;20543;-76
2024/01/05 20:55:44;;;;;;;14.38;5.28;;;;;;;;;;10582098;27;20047;-75
2024/01/05 21:00:47;;;;;;;46.13;19.50;;;;;;;;;;10599607;27;20459;-76
2024/01/05 21:05:52;;;;;;;18.42;5.95;;;;;;;;;;10601945;27;20049;-75
2024/01/05 21:10:54;;;;;;;12.43;4.20;;;;;;;;;;10600002;27;20043;-75
2024/01/05 21:15:57;;;;;;;12.98;4.90;;;;;;;;;;10600238;27;20070;-76
2024/01/05 21:21:06;;;;;;;10.55;4.55;;;;;;;;;;10599399;27;20060;-76
2024/01/05 21:26:09;;;;;;;21.30;9.02;;;;;;;;;;10601538;27;20051;-74
2024/01/05 21:31:13;;;;;;;12.50;6.05;;;;;;;;;;10596722;27;20553;-75
2024/01/05 21:36:18;;;;;;;13.40;5.28;;;;;;;;;;10600457;27;20047;-75
2024/01/05 21:41:22;;;;;;;11.30;5.43;;;;;;;;;;10595142;27;20039;-75
2024/01/05 21:46:25;;;;;;;12.02;4.82;;;;;;;;;;10597788;28;20035;-75
2024/01/05 21:51:29;;;;;;;14.70;5.22;;;;;;;;;;10603252;28;20571;-75
2024/01/05 21:56:32;;;;;;;12.23;4.97;;;;;;;;;;10594029;27;20066;-75
2024/01/05 22:01:35;;;;;;;11.05;4.75;;;;;;;;;;10598947;27;20101;-74
2024/01/05 22:06:39;;;;;;;8.32;4.63;;;;;;;;;;10591428;27;20073;-76
2024/01/05 22:11:42;;;;;;;;;;;;;;;;;;10584393;27;20035;-74
2024/01/05 22:16:44;;;;;;;12.10;6.03;;;;;;;;;;10582426;28;20280;-77
2024/01/05 22:21:48;;;;;;;11.48;4.60;;;;;;;;;;10583054;27;20044;-74
2024/01/05 22:26:51;;;;;;;10.40;4.07;;;;;;;;;;10587277;27;20031;-75
2024/01/05 22:31:54;;;;;;;10.20;5.13;;;;;;;;;;10579526;27;20179;-76
2024/01/05 22:36:59;;;;;;;10.15;5.30;;;;;;;;;;10590161;27;20044;-76
2024/01/05 22:42:02;;;;;;;9.82;4.70;;;;;;;;;;10585164;27;20134;-75
2024/01/05 22:47:05;;;;;;;10.25;4.97;;;;;;;;;;10595650;27;20096;-75
2024/01/05 22:52:09;;;;;;;11.35;4.80;;;;;;;;;;10587185;27;20121;-76
2024/01/05 22:57:12;;;;;;;8.85;3.92;;;;;;;;;;10597501;27;20122;-75
2024/01/05 23:02:15;;;;;;;13.18;5.03;;;;;;;;;;10585490;27;20392;-74
2024/01/05 23:07:19;;;;;;;23.52;9.68;;;;;;;;;;10585890;27;20121;-75
2024/01/05 23:12:21;;;;;;;11.98;5.45;;;;;;;;;;10584632;27;20058;-74
2024/01/05 23:17:24;;;;;;;9.30;4.82;;;;;;;;;;10587025;27;20476;-74
2024/01/05 23:22:28;;;;;;;9.77;4.95;;;;;;;;;;10591449;27;20108;-75
2024/01/05 23:27:31;;;;;;;9.48;4.95;;;;;;;;;;10581708;27;20144;-75
2024/01/05 23:32:36;;;;;;;9.63;4.10;;;;;;;;;;10585926;27;20047;-74
2024/01/05 23:37:41;;;;;;;9.35;4.53;;;;;;;;;;10581955;27;20046;-75
2024/01/05 23:42:44;;;;;;;9.00;3.58;;;;;;;;;;10579816;27;20062;-75
2024/01/05 23:47:47;;;;;;;10.75;4.70;;;;;;;;;;10588746;27;20042;-75
2024/01/05 23:52:51;;;;;;;7.95;3.78;;;;;;;;;;10585584;27;20042;-75
2024/01/05 23:57:54;;;;;;;7.93;3.35;;;;;;;;;;10594379;27;20046;-75
